Time;durP1;ratioP1;P1;durP2;ratioP2;P2;SDS_P1;SDS_P2;PMS_P1;PMS_P2;Temp;Humidity;BMP_temperature;BMP_pressure;BME280_temperature;BME280_humidity;BME280_pressure;Samples;Min_cycle;Max_cycle;Signal;HPM_P1;HPM_P2
2022/05/26 00:00:30;;;;;;;1.77;0.60;;;;;;;14.38;52.72;100648.78;5022516;28;20116;-75
2022/05/26 00:02:55;;;;;;;1.95;0.70;;;;;;;14.48;52.14;100652.97;5030063;28;20486;-75
2022/05/26 00:05:21;;;;;;;2.78;0.70;;;;;;;14.50;52.53;100652.06;5024384;28;20043;-74
2022/05/26 00:07:46;;;;;;;2.20;0.70;;;;;;;14.57;52.24;100649.31;5023328;28;20041;-75
2022/05/26 00:10:12;;;;;;;3.88;0.85;;;;;;;14.65;52.02;100651.81;5022995;28;20034;-74
2022/05/26 00:12:38;;;;;;;2.17;0.90;;;;;;;14.71;51.86;100643.69;5025040;28;20025;-75
2022/05/26 00:15:05;;;;;;;3.30;0.70;;;;;;;14.74;51.74;100640.97;5022037;28;20553;-75
2022/05/26 00:17:30;;;;;;;5.50;1.30;;;;;;;14.78;51.92;100647.97;5024458;28;20040;-75
2022/05/26 00:19:56;;;;;;;2.47;1.00;;;;;;;14.81;51.55;100647.91;5023372;28;20420;-76
2022/05/26 00:22:21;;;;;;;3.17;0.85;;;;;;;14.83;51.76;100640.78;5025546;28;20037;-75
2022/05/26 00:24:47;;;;;;;2.83;0.93;;;;;;;14.85;51.89;100640.72;5022671;28;20512;-75
2022/05/26 00:27:13;;;;;;;7.03;1.08;;;;;;;14.87;51.83;100642.44;5019833;28;20041;-75
2022/05/26 00:29:38;;;;;;;2.05;0.60;;;;;;;14.89;51.57;100645.94;5023872;28;20037;-74
2022/05/26 00:32:05;;;;;;;2.65;0.75;;;;;;;14.92;51.54;100645.00;5019597;28;20042;-75
2022/05/26 00:34:30;;;;;;;2.70;0.60;;;;;;;14.95;51.51;100638.75;5022383;28;20034;-75
2022/05/26 00:36:56;;;;;;;1.92;0.70;;;;;;;14.95;51.51;100644.94;5023669;28;20040;-76
2022/05/26 00:39:23;;;;;;;2.42;0.80;;;;;;;14.97;51.85;100650.22;5022445;28;20029;-75
2022/05/26 00:41:54;;;;;;;2.60;0.88;;;;;;;15.00;51.64;100637.72;5024567;28;20040;-75
2022/05/26 00:44:20;;;;;;;2.28;0.80;;;;;;;15.05;51.29;100640.28;5002830;28;20030;-76
2022/05/26 00:46:51;;;;;;;1.45;0.60;;;;;;;15.09;51.22;100642.84;5024155;28;20029;-75
2022/05/26 00:49:24;;;;;;;2.25;0.95;;;;;;;15.11;51.37;100640.13;5021838;28;20041;-75
2022/05/26 00:51:49;;;;;;;1.02;0.60;;;;;;;15.10;51.74;100635.75;5021814;28;20049;-76
2022/05/26 00:54:21;;;;;;;3.65;0.70;;;;;;;15.13;51.51;100638.31;5022114;28;20021;-75
2022/05/26 00:56:56;;;;;;;4.70;0.63;;;;;;;15.13;51.92;100633.00;5030881;28;20041;-75
2022/05/26 00:59:37;;;;;;;2.38;0.82;;;;;;;15.18;51.95;100636.44;5021891;28;20033;-75
2022/05/26 01:02:03;;;;;;;4.43;0.70;;;;;;;15.14;51.82;100624.13;5018854;28;20068;-75
2022/05/26 01:04:35;;;;;;;2.45;0.70;;;;;;;15.18;51.83;100631.13;5022719;28;20026;-75
2022/05/26 01:07:11;;;;;;;2.97;0.70;;;;;;;15.13;52.09;100628.56;5021746;28;20548;-75
2022/05/26 01:09:37;;;;;;;2.22;0.57;;;;;;;15.20;51.90;100628.44;5021080;28;20515;-75
2022/05/26 01:12:02;;;;;;;1.90;0.60;;;;;;;15.27;51.67;100627.34;5023747;28;20038;-75
2022/05/26 01:14:33;;;;;;;2.50;0.90;;;;;;;15.30;51.90;100625.53;5017850;28;20021;-75
2022/05/26 01:17:18;;;;;;;2.30;0.80;;;;;;;15.39;51.66;100623.53;5027916;28;20034;-75
2022/05/26 01:20:16;;;;;;;4.63;0.95;;;;;;;15.41;51.89;100622.59;5022681;28;20041;-75
2022/05/26 01:23:03;;;;;;;2.67;0.63;;;;;;;15.46;51.64;100626.00;5023640;28;20399;-75
2022/05/26 01:25:47;;;;;;;2.15;0.88;;;;;;;15.45;51.94;100626.03;5023280;28;20087;-75
2022/05/26 01:28:35;;;;;;;1.65;0.80;;;;;;;15.45;51.72;100632.22;5022830;28;20603;-76
2022/05/26 01:31:28;;;;;;;4.93;1.35;;;;;;;15.49;51.87;100627.72;5022173;28;20060;-75
2022/05/26 01:34:10;;;;;;;2.95;1.00;;;;;;;15.54;51.60;100624.03;5022659;28;20048;-75
2022/05/26 01:36:41;;;;;;;;;;;;;;;15.56;51.83;100637.28;5022633;28;20392;-75
2022/05/26 01:39:18;;;;;;;3.25;1.42;;;;;;;15.55;52.13;100632.88;5021230;28;20447;-75
2022/05/26 01:41:56;;;;;;;3.80;1.27;;;;;;;15.59;51.91;100631.91;5021270;28;20081;-75
2022/05/26 01:44:52;;;;;;;2.05;0.73;;;;;;;15.66;51.35;100643.25;5020469;28;20389;-75
2022/05/26 01:47:31;;;;;;;2.03;0.82;;;;;;;15.70;51.27;100635.19;5019759;28;20033;-75
2022/05/26 01:50:06;;;;;;;3.08;1.10;;;;;;;15.75;50.89;100643.06;5023020;28;20034;-75
2022/05/26 01:52:44;;;;;;;2.63;0.70;;;;;;;15.76;51.71;100643.00;5020811;28;20109;-75
2022/05/26 01:55:30;;;;;;;2.72;1.10;;;;;;;15.73;51.29;100634.25;5020273;28;20492;-75
2022/05/26 01:58:23;;;;;;;4.32;1.38;;;;;;;15.67;51.08;100637.91;5023160;28;20128;-74
2022/05/26 02:00:51;;;;;;;5.53;1.40;;;;;;;15.66;50.96;100638.78;5023286;28;20033;-75
2022/05/26 02:03:23;;;;;;;3.65;1.20;;;;;;;15.70;50.54;100637.84;5020244;28;20074;-75
2022/05/26 02:05:54;;;;;;;6.72;1.75;;;;;;;15.70;50.00;100635.19;5021722;28;20128;-75
2022/05/26 02:08:49;;;;;;;4.60;1.48;;;;;;;15.68;50.12;100636.13;5023144;28;20407;-75
2022/05/26 02:11:18;;;;;;;2.78;1.30;;;;;;;15.75;49.74;100632.41;5017395;28;20053;-75
2022/05/26 02:14:17;;;;;;;3.78;1.52;;;;;;;15.76;49.71;100632.38;5021029;28;20026;-75
2022/05/26 02:16:49;;;;;;;1.90;0.80;;;;;;;15.81;49.46;100620.75;5019709;28;20404;-75
2022/05/26 02:19:20;;;;;;;2.42;0.90;;;;;;;15.80;49.08;100624.28;5026457;28;20535;-75
2022/05/26 02:22:03;;;;;;;4.07;1.10;;;;;;;15.82;48.96;100625.13;5020899;28;20160;-75
2022/05/26 02:24:38;;;;;;;2.47;0.75;;;;;;;15.81;49.07;100626.94;5019570;28;20171;-75
2022/05/26 02:27:07;;;;;;;3.15;0.60;;;;;;;15.83;49.21;100622.44;5022391;28;20048;-75
2022/05/26 02:29:51;;;;;;;1.35;0.50;;;;;;;15.86;48.65;100626.81;5019267;28;20121;-75
2022/05/26 02:32:20;;;;;;;3.22;0.70;;;;;;;15.89;48.67;100624.06;5019413;28;20041;-75
2022/05/26 02:34:48;;;;;;;2.05;0.70;;;;;;;15.89;48.68;100626.72;5021722;28;20100;-76
2022/05/26 02:37:14;;;;;;;1.52;0.50;;;;;;;15.85;48.70;100628.63;5022017;28;20060;-75
2022/05/26 02:39:39;;;;;;;2.55;0.82;;;;;;;15.86;48.63;100624.16;5021216;28;20478;-75
2022/05/26 02:42:07;;;;;;;0.95;0.52;;;;;;;15.88;48.60;100632.97;5019308;28;20385;-75
2022/05/26 02:44:33;;;;;;;3.75;0.63;;;;;;;15.85;48.64;100628.63;5017577;28;20037;-75
2022/05/26 02:47:07;;;;;;;1.92;0.50;;;;;;;15.86;48.74;100632.13;5022878;28;20400;-74
2022/05/26 02:49:49;;;;;;;1.95;0.55;;;;;;;15.86;48.25;100632.13;5021309;28;20038;-75
2022/05/26 02:52:42;;;;;;;2.28;0.50;;;;;;;15.87;48.17;100623.22;5020002;28;20041;-75
2022/05/26 02:55:17;;;;;;;3.20;0.60;;;;;;;15.81;48.77;100626.94;5020504;28;20042;-76
2022/05/26 02:57:59;;;;;;;2.40;0.60;;;;;;;15.80;48.97;100634.94;5019890;28;20513;-75
2022/05/26 03:00:35;;;;;;;1.73;0.55;;;;;;;15.75;48.98;100637.75;5021484;28;20403;-74
2022/05/26 03:03:25;;;;;;;1.50;0.50;;;;;;;15.73;48.88;100624.47;5016120;28;20037;-75
2022/05/26 03:06:01;;;;;;;2.22;0.63;;;;;;;15.69;48.78;100629.91;5019701;28;20386;-75
2022/05/26 03:08:28;;;;;;;2.67;0.60;;;;;;;15.61;49.07;100624.75;5020454;28;20554;-76
2022/05/26 03:11:04;;;;;;;2.63;0.50;;;;;;;15.63;49.18;100624.72;5022398;28;20045;-76
2022/05/26 03:13:29;;;;;;;2.53;0.68;;;;;;;15.55;49.60;100623.09;5020667;28;20034;-75
2022/05/26 03:15:55;;;;;;;2.15;0.70;;;;;;;15.52;49.58;100623.19;5020594;28;20087;-75
2022/05/26 03:18:20;;;;;;;3.15;0.40;;;;;;;15.55;49.36;100622.25;5021753;28;20034;-75
2022/05/26 03:20:45;;;;;;;1.35;0.40;;;;;;;15.56;49.14;100621.31;5019640;28;20033;-75
2022/05/26 03:23:11;;;;;;;2.25;0.60;;;;;;;15.53;49.50;100621.41;5022487;28;20502;-75
2022/05/26 03:25:36;;;;;;;0.95;0.38;;;;;;;15.52;49.37;100625.84;5020139;28;20045;-75
2022/05/26 03:28:01;;;;;;;1.63;0.50;;;;;;;15.46;49.59;100620.69;5003954;28;20044;-76
2022/05/26 03:30:26;;;;;;;2.30;0.47;;;;;;;15.45;49.84;100623.38;5020583;28;20042;-75
2022/05/26 03:32:52;;;;;;;1.25;0.60;;;;;;;15.45;49.53;100628.69;5018961;28;20037;-75
2022/05/26 03:40:57;;;;;;;2.35;0.93;;;;;;;15.44;49.81;100629.63;5020174;28;20100;-75
2022/05/26 03:43:29;;;;;;;0.80;0.40;;;;;;;15.47;50.08;100638.38;5022042;28;20485;-75
2022/05/26 03:45:54;;;;;;;2.67;0.85;;;;;;;15.51;49.85;100640.06;5026548;28;20052;-75
2022/05/26 03:48:20;;;;;;;2.55;0.40;;;;;;;15.60;49.61;100646.06;5019614;28;20042;-75
2022/05/26 03:50:45;;;;;;;5.55;0.70;;;;;;;15.60;50.07;100646.94;5025592;28;20069;-75
2022/05/26 03:53:10;;;;;;;3.47;0.70;;;;;;;15.65;49.79;100655.69;5022915;28;20073;-75
2022/05/26 03:55:36;;;;;;;5.35;0.70;;;;;;;15.70;49.78;100656.47;5020534;28;20095;-75
2022/05/26 03:58:03;;;;;;;3.10;0.50;;;;;;;15.71;49.59;100655.56;5025742;28;20128;-75
2022/05/26 04:00:29;;;;;;;3.10;0.50;;;;;;;15.72;49.77;100657.31;5023300;28;20034;-76
2022/05/26 04:02:55;;;;;;;3.83;0.60;;;;;;;15.80;49.47;100661.56;5026376;28;20037;-75
2022/05/26 04:05:21;;;;;;;2.58;0.50;;;;;;;15.87;49.40;100663.16;5024575;28;20044;-75
2022/05/26 04:07:46;;;;;;;2.97;0.50;;;;;;;15.92;49.53;100666.56;5027562;28;20049;-75
2022/05/26 04:10:12;;;;;;;1.65;0.50;;;;;;;15.99;49.38;100668.16;5029301;28;20167;-75
2022/05/26 04:12:38;;;;;;;2.42;0.60;;;;;;;16.08;49.20;100670.56;5022139;28;20140;-76
2022/05/26 04:15:06;;;;;;;2.83;0.60;;;;;;;16.23;49.24;100671.09;5024478;28;20079;-75
2022/05/26 04:17:32;;;;;;;2.45;0.55;;;;;;;16.23;49.27;100671.09;5021741;28;20090;-74
2022/05/26 04:19:57;;;;;;;2.65;0.82;;;;;;;16.29;49.23;100666.44;5026745;28;20118;-75
2022/05/26 04:22:26;;;;;;;2.00;0.68;;;;;;;16.30;48.94;100678.00;5020603;28;20045;-74
2022/05/26 04:24:56;;;;;;;2.47;0.70;;;;;;;16.35;48.74;100676.09;5024998;28;20042;-74
2022/05/26 04:27:23;;;;;;;2.72;0.50;;;;;;;16.40;49.01;100675.03;5029480;28;20025;-75
2022/05/26 04:29:48;;;;;;;3.67;0.52;;;;;;;16.49;48.88;100670.38;5024218;28;20484;-75
2022/05/26 04:32:14;;;;;;;4.90;0.57;;;;;;;16.50;48.74;100675.63;5021422;28;20107;-75
2022/05/26 04:34:40;;;;;;;2.65;0.70;;;;;;;16.52;48.66;100673.81;5024859;28;20037;-74
2022/05/26 04:37:06;;;;;;;1.88;0.50;;;;;;;16.60;48.42;100674.44;5024779;28;20043;-75
2022/05/26 04:39:32;;;;;;;1.42;0.47;;;;;;;16.73;48.15;100676.78;5023577;28;20123;-74
2022/05/26 04:41:59;;;;;;;3.47;0.90;;;;;;;16.74;48.32;100673.19;5023583;28;20502;-74
2022/05/26 04:44:28;;;;;;;2.17;0.50;;;;;;;16.81;48.11;100674.78;5019895;28;20041;-75
2022/05/26 04:46:53;;;;;;;2.47;0.65;;;;;;;16.75;48.37;100681.13;5021517;28;20033;-75
2022/05/26 04:49:18;;;;;;;3.45;0.75;;;;;;;16.78;47.71;100683.75;5024598;28;20037;-75
2022/05/26 04:51:44;;;;;;;3.58;0.52;;;;;;;16.69;48.05;100681.34;5025565;28;20052;-75
2022/05/26 04:54:09;;;;;;;5.22;0.68;;;;;;;16.77;48.00;100687.34;5022666;28;20038;-75
2022/05/26 04:56:35;;;;;;;3.08;0.60;;;;;;;16.79;48.21;100687.28;5023054;28;20420;-75
2022/05/26 04:59:00;;;;;;;2.78;0.80;;;;;;;16.88;48.06;100694.16;5022730;28;20648;-75
2022/05/26 05:01:26;;;;;;;3.05;0.60;;;;;;;16.83;47.84;100688.94;5025499;28;20040;-75
2022/05/26 05:03:51;;;;;;;1.45;0.50;;;;;;;16.91;47.53;100686.06;5020845;28;20400;-74
2022/05/26 05:06:17;;;;;;;2.33;0.68;;;;;;;16.92;47.53;100694.00;5023557;28;20029;-75
2022/05/26 05:08:43;;;;;;;2.05;0.47;;;;;;;17.02;47.58;100689.25;5017274;28;20070;-75
2022/05/26 05:11:10;;;;;;;2.70;0.95;;;;;;;17.19;47.06;100700.31;5022811;28;20400;-75
2022/05/26 05:13:37;;;;;;;1.35;0.50;;;;;;;17.25;46.92;100699.22;5021524;28;20030;-75
2022/05/26 05:16:09;;;;;;;2.67;0.80;;;;;;;17.35;46.57;100695.34;5023937;28;20038;-75
2022/05/26 05:18:34;;;;;;;1.15;0.45;;;;;;;17.42;46.76;100693.34;5021679;28;20049;-75
2022/05/26 05:21:06;;;;;;;1.95;0.47;;;;;;;17.55;46.27;100694.69;5022318;28;20493;-74
2022/05/26 05:23:33;;;;;;;1.83;0.50;;;;;;;17.62;46.36;100708.75;5021616;28;20511;-75
2022/05/26 05:26:01;;;;;;;3.10;0.50;;;;;;;17.53;46.25;100702.78;5021662;28;20061;-75
2022/05/26 05:28:31;;;;;;;2.30;0.50;;;;;;;17.53;46.15;100708.13;5024499;28;20029;-75
2022/05/26 05:31:02;;;;;;;2.67;0.55;;;;;;;17.60;46.50;100714.09;5022343;28;20424;-75
2022/05/26 05:33:46;;;;;;;5.65;0.80;;;;;;;17.69;46.06;100716.50;5020177;28;20032;-75
2022/05/26 05:36:21;;;;;;;3.60;0.70;;;;;;;17.66;46.52;100713.06;5023147;28;20124;-75
2022/05/26 05:38:47;;;;;;;2.35;0.50;;;;;;;17.77;46.52;100715.38;5022720;28;20055;-75
2022/05/26 05:41:12;;;;;;;3.75;0.60;;;;;;;17.81;45.90;100715.22;5021802;28;20396;-76
2022/05/26 05:43:39;;;;;;;2.67;0.50;;;;;;;17.89;46.01;100721.22;5021694;28;20625;-75
2022/05/26 05:46:08;;;;;;;4.15;0.65;;;;;;;17.89;46.06;100723.91;5025957;28;20041;-75
2022/05/26 05:48:37;;;;;;;2.60;0.55;;;;;;;17.91;45.54;100716.69;5020637;28;20049;-75
2022/05/26 05:51:02;;;;;;;2.75;0.60;;;;;;;17.87;45.53;100723.06;5028952;28;20038;-75
2022/05/26 05:53:28;;;;;;;2.30;0.75;;;;;;;17.89;46.30;100721.22;5021882;28;20050;-75
2022/05/26 05:55:53;;;;;;;1.30;0.40;;;;;;;18.10;45.74;100727.63;5020509;28;20493;-75
2022/05/26 05:58:19;;;;;;;2.63;0.60;;;;;;;18.17;45.25;100720.25;5022675;28;20112;-75
2022/05/26 06:00:44;;;;;;;2.78;0.40;;;;;;;18.34;45.50;100715.22;5020027;28;20045;-75
2022/05/26 06:03:10;;;;;;;1.95;0.60;;;;;;;18.56;45.74;100717.13;5019705;28;20224;-75
2022/05/26 06:05:36;;;;;;;2.50;0.80;;;;;;;18.74;45.00;100721.78;5020366;28;20041;-75
2022/05/26 06:08:03;;;;;;;2.60;1.10;;;;;;;18.74;43.48;100720.91;5020128;28;20117;-75
2022/05/26 06:10:30;;;;;;;1.27;0.50;;;;;;;18.70;44.12;100720.13;5023147;28;20040;-75
2022/05/26 06:12:55;;;;;;;2.33;0.50;;;;;;;18.64;44.86;100717.72;5022207;28;20030;-76
2022/05/26 06:15:21;;;;;;;2.50;0.50;;;;;;;18.69;44.73;100722.88;5023273;28;20447;-76
2022/05/26 06:17:47;;;;;;;5.10;0.90;;;;;;;18.59;44.71;100738.38;5020644;28;20041;-75
2022/05/26 06:20:13;;;;;;;1.95;0.50;;;;;;;18.52;44.99;100739.53;5020990;28;20087;-75
2022/05/26 06:22:43;;;;;;;6.75;0.82;;;;;;;18.37;45.53;100727.59;5020688;28;20073;-75
2022/05/26 06:25:13;;;;;;;2.00;0.63;;;;;;;18.31;45.58;100734.03;5023012;28;20049;-75
2022/05/26 06:30:26;;;;;;;3.85;0.70;;;;;;;18.69;45.05;100750.50;5020736;28;20037;-75
2022/05/26 06:38:24;;;;;;;3.45;1.02;;;;;;;19.21;44.46;100740.56;5029165;28;20037;-75
2022/05/26 06:40:50;;;;;;;2.70;0.70;;;;;;;19.34;43.99;100746.31;5015326;28;20057;-75
2022/05/26 06:43:17;;;;;;;3.05;0.60;;;;;;;19.44;43.87;100744.13;5020601;28;20034;-75
2022/05/26 06:45:45;;;;;;;3.70;0.80;;;;;;;19.58;43.14;100752.50;5020313;28;20042;-75
2022/05/26 06:48:10;;;;;;;2.63;0.77;;;;;;;19.47;43.46;100752.06;5019186;28;20056;-75
2022/05/26 06:50:35;;;;;;;2.75;1.00;;;;;;;19.29;43.74;100771.50;5023296;28;20152;-75
2022/05/26 06:53:01;;;;;;;3.70;0.90;;;;;;;19.33;44.27;100744.53;5018814;28;20033;-74
2022/05/26 06:55:26;;;;;;;3.80;0.63;;;;;;;19.21;43.95;100753.94;5022270;28;20105;-75
2022/05/26 06:57:52;;;;;;;2.50;0.77;;;;;;;19.31;44.15;100746.44;5026318;28;20128;-76
2022/05/26 07:00:18;;;;;;;3.47;1.00;;;;;;;19.29;43.81;100734.03;5021886;28;20030;-75
2022/05/26 07:02:45;;;;;;;3.88;0.88;;;;;;;19.17;44.16;100746.94;5023571;28;20049;-75
2022/05/26 07:05:11;;;;;;;2.67;0.80;;;;;;;19.35;43.91;100739.13;5026200;28;20112;-75
2022/05/26 07:07:38;;;;;;;7.55;0.57;;;;;;;19.31;43.84;100745.53;5023767;28;20034;-76
2022/05/26 07:10:04;;;;;;;4.30;0.70;;;;;;;19.23;44.01;100769.91;5026183;28;20041;-75
2022/05/26 07:12:29;;;;;;;1.77;0.65;;;;;;;19.26;44.11;100762.66;5020510;28;20034;-76
2022/05/26 07:14:55;;;;;;;4.30;1.00;;;;;;;19.33;43.64;100757.06;5020207;28;20103;-75
2022/05/26 07:17:20;;;;;;;2.75;0.70;;;;;;;19.44;44.03;100754.81;5022618;28;20029;-75
2022/05/26 07:19:46;;;;;;;4.28;0.90;;;;;;;19.77;43.95;100751.78;5026127;28;20640;-75
2022/05/26 07:22:11;;;;;;;2.13;0.50;;;;;;;20.12;43.55;100759.22;5029653;28;20026;-75
2022/05/26 07:24:38;;;;;;;3.83;0.70;;;;;;;20.24;43.03;100765.00;5028814;28;20092;-75
2022/05/26 07:27:03;;;;;;;2.05;0.68;;;;;;;20.09;43.03;100766.50;5019913;28;20042;-75
2022/05/26 07:29:29;;;;;;;2.88;0.50;;;;;;;19.81;43.28;100764.13;5024979;28;20029;-76
2022/05/26 07:31:54;;;;;;;2.05;0.68;;;;;;;19.66;43.83;100765.56;5020871;28;20492;-75
2022/05/26 07:34:20;;;;;;;2.22;0.68;;;;;;;19.58;43.94;100765.00;5025786;28;20040;-75
2022/05/26 07:42:19;;;;;;;2.42;0.60;;;;;;;19.38;44.23;100776.47;5022994;28;20186;-75
2022/05/26 07:44:48;;;;;;;2.40;0.80;;;;;;;19.27;44.57;100785.78;5022409;28;20500;-75
2022/05/26 07:47:13;;;;;;;4.22;0.80;;;;;;;19.19;44.45;100782.53;5024681;28;20093;-75
2022/05/26 07:49:42;;;;;;;2.22;0.70;;;;;;;19.09;45.23;100791.84;5024164;28;20065;-75
2022/05/26 07:52:09;;;;;;;3.50;0.60;;;;;;;19.18;45.39;100785.28;5021579;28;20455;-75
2022/05/26 07:54:35;;;;;;;2.08;0.50;;;;;;;19.15;45.43;100780.94;5025353;28;20072;-75
2022/05/26 07:57:01;;;;;;;1.92;0.70;;;;;;;19.64;45.03;100779.00;5018118;28;20038;-75
2022/05/26 07:59:27;;;;;;;2.92;0.80;;;;;;;20.03;43.76;100778.34;5023269;28;20044;-75
2022/05/26 08:01:52;;;;;;;1.88;0.63;;;;;;;20.11;43.38;100778.91;5022123;28;20116;-75
2022/05/26 08:04:18;;;;;;;1.60;0.60;;;;;;;20.24;43.39;100781.94;5021641;28;20065;-75
2022/05/26 08:06:48;;;;;;;2.60;0.75;;;;;;;20.55;43.19;100789.59;5025503;28;20084;-75
2022/05/26 08:09:16;;;;;;;3.00;0.63;;;;;;;20.47;43.11;100794.38;5021539;28;20089;-76
2022/05/26 08:11:41;;;;;;;2.17;0.80;;;;;;;20.48;42.63;100782.69;5022528;28;20737;-76
2022/05/26 08:14:07;;;;;;;4.70;0.70;;;;;;;20.61;43.22;100795.63;5025733;28;20048;-75
2022/05/26 08:16:32;;;;;;;1.88;0.60;;;;;;;20.91;42.79;100809.50;5022373;28;20484;-75
2022/05/26 08:18:57;;;;;;;3.55;0.70;;;;;;;20.66;43.17;100796.28;5026462;28;20064;-76
2022/05/26 08:21:23;;;;;;;4.53;0.90;;;;;;;20.56;42.71;100796.66;5023775;28;20029;-75
2022/05/26 08:23:49;;;;;;;2.50;0.80;;;;;;;20.33;43.24;100794.97;5024055;28;20045;-75
2022/05/26 08:26:15;;;;;;;1.77;0.70;;;;;;;20.03;44.54;100802.47;5025384;28;20068;-75
2022/05/26 08:28:42;;;;;;;4.10;0.80;;;;;;;19.95;44.57;100809.94;5022483;28;20033;-76
2022/05/26 08:31:09;;;;;;;1.90;0.60;;;;;;;19.86;44.93;100813.88;5027420;28;20423;-75
2022/05/26 08:33:35;;;;;;;3.53;0.77;;;;;;;19.84;45.74;100810.38;5026105;28;20133;-75
2022/05/26 08:36:06;;;;;;;2.35;0.93;;;;;;;19.95;45.26;100815.31;5021620;28;20548;-75
2022/05/26 08:38:32;;;;;;;3.72;0.70;;;;;;;20.05;45.38;100816.69;5022292;28;20034;-75
2022/05/26 08:40:58;;;;;;;1.02;0.60;;;;;;;20.03;44.92;100829.25;5023700;28;20431;-76
2022/05/26 08:43:32;;;;;;;4.03;0.70;;;;;;;19.94;44.71;100824.28;5029025;28;20479;-75
2022/05/26 08:45:58;;;;;;;3.22;0.70;;;;;;;19.94;45.55;100835.00;5025494;28;20030;-75
2022/05/26 08:48:43;;;;;;;1.73;0.80;;;;;;;19.97;45.57;100840.25;5025094;28;20496;-75
2022/05/26 08:51:13;;;;;;;2.22;0.70;;;;;;;19.88;45.32;100825.38;5021713;28;20049;-75
2022/05/26 08:53:41;;;;;;;3.38;0.80;;;;;;;19.85;45.20;100833.53;5044330;28;20030;-76
2022/05/26 08:56:12;;;;;;;3.22;0.80;;;;;;;19.90;45.67;100834.25;5028423;28;20022;-75
2022/05/26 08:58:45;;;;;;;4.38;0.75;;;;;;;20.23;45.21;100830.25;5027337;28;20083;-76
2022/05/26 09:01:18;;;;;;;3.00;0.70;;;;;;;20.06;45.28;100852.38;5021113;28;20033;-75
2022/05/26 09:03:43;;;;;;;1.70;0.70;;;;;;;19.78;45.66;100839.19;5029487;28;20599;-76
2022/05/26 09:06:13;;;;;;;1.45;0.50;;;;;;;19.83;45.93;100842.56;5028940;28;20137;-75
2022/05/26 09:12:55;;;;;;;3.53;0.68;;;;;;;20.12;46.03;100841.41;5025286;28;20033;-74
2022/05/26 09:14:22;;;;;;;2.70;0.93;;;;;;;20.33;44.52;100848.56;5026420;28;20095;-76
2022/05/26 09:16:47;;;;;;;3.67;1.00;;;;;;;20.18;44.77;100854.56;5028643;28;20049;-75
2022/05/26 09:19:21;;;;;;;3.92;0.80;;;;;;;20.24;45.07;100850.75;5029846;28;20500;-75
2022/05/26 09:21:48;;;;;;;1.45;0.70;;;;;;;20.28;44.92;100855.06;5025534;28;20025;-76
2022/05/26 09:24:30;;;;;;;1.90;0.80;;;;;;;20.11;45.26;100847.72;5025646;28;20184;-76
2022/05/26 09:26:56;;;;;;;4.68;1.13;;;;;;;20.27;44.56;100851.50;5022957;28;20504;-75
2022/05/26 09:29:32;;;;;;;2.25;0.70;;;;;;;20.42;44.26;100862.53;5026194;28;20439;-75
2022/05/26 09:31:59;;;;;;;2.00;0.80;;;;;;;20.42;44.20;100841.94;5026672;28;20030;-75
2022/05/26 09:34:28;;;;;;;3.17;0.70;;;;;;;20.45;44.53;100855.22;5024880;28;20041;-75
2022/05/26 09:37:00;;;;;;;4.63;1.10;;;;;;;20.59;43.96;100851.97;5026004;28;20035;-75
2022/05/26 09:39:42;;;;;;;3.08;0.63;;;;;;;20.68;44.20;100864.16;5025175;28;20034;-75
2022/05/26 09:42:16;;;;;;;4.05;0.80;;;;;;;20.76;43.35;100852.13;5027773;28;20135;-76
2022/05/26 09:44:59;;;;;;;3.63;1.17;;;;;;;20.74;43.38;100869.22;5025860;28;20037;-75
2022/05/26 09:47:48;;;;;;;3.08;0.80;;;;;;;20.78;43.45;100842.22;5023202;28;20049;-76
2022/05/26 09:50:32;;;;;;;2.97;0.80;;;;;;;20.83;43.09;100852.75;5020287;28;20397;-75
2022/05/26 09:52:58;;;;;;;5.82;0.95;;;;;;;20.92;43.28;100844.28;5019839;28;20099;-76
2022/05/26 09:55:48;;;;;;;5.60;0.90;;;;;;;21.34;42.41;100859.41;5024232;28;20480;-75
2022/05/26 09:58:27;;;;;;;1.85;0.75;;;;;;;21.42;42.86;100851.91;5029242;28;20484;-76
2022/05/26 10:00:55;;;;;;;2.20;1.00;;;;;;;21.79;42.24;100852.84;5021647;28;20049;-75
2022/05/26 10:03:44;;;;;;;1.90;0.70;;;;;;;21.67;42.02;100856.16;5019874;28;20096;-75
2022/05/26 10:06:19;;;;;;;1.88;0.80;;;;;;;21.58;42.51;100854.75;5037570;28;20060;-75
2022/05/26 10:08:55;;;;;;;2.42;0.90;;;;;;;21.68;41.49;100860.56;5020827;28;20073;-75
2022/05/26 10:11:43;;;;;;;2.08;0.80;;;;;;;21.32;41.88;100874.69;5020155;28;20040;-75
2022/05/26 10:14:19;;;;;;;3.75;0.68;;;;;;;21.21;42.74;100883.25;5022209;28;20047;-75
2022/05/26 10:16:55;;;;;;;7.63;1.40;;;;;;;21.34;42.95;100859.41;5022453;28;20504;-75
2022/05/26 10:19:30;;;;;;;3.05;0.70;;;;;;;21.50;42.29;100856.03;5025481;28;20080;-75
2022/05/26 10:22:14;;;;;;;3.35;0.85;;;;;;;21.63;42.51;100857.22;5020003;28;20058;-75
2022/05/26 10:24:39;;;;;;;5.13;0.88;;;;;;;21.76;42.18;100853.00;5019486;28;20041;-75
2022/05/26 10:27:13;;;;;;;2.13;0.70;;;;;;;21.76;42.14;100871.81;5022352;28;20040;-75
2022/05/26 10:29:50;;;;;;;5.13;1.13;;;;;;;21.61;41.57;100867.16;5033418;28;20088;-76
2022/05/26 10:32:37;;;;;;;2.25;0.80;;;;;;;21.38;42.26;100877.16;5025233;28;20470;-75
2022/05/26 10:35:19;;;;;;;2.20;0.70;;;;;;;21.10;42.92;100869.44;5019175;28;20499;-75
2022/05/26 10:38:00;;;;;;;1.80;0.50;;;;;;;20.89;43.30;100860.53;5019857;28;20162;-75
2022/05/26 10:40:45;;;;;;;2.20;0.70;;;;;;;21.19;43.39;100881.56;5020631;28;20048;-76
2022/05/26 10:43:39;;;;;;;2.85;1.02;;;;;;;21.48;42.66;100880.28;5024821;28;20091;-76
2022/05/26 10:46:07;;;;;;;0.95;0.50;;;;;;;21.58;42.20;100872.69;5022684;28;20037;-75
2022/05/26 10:48:39;;;;;;;2.92;0.70;;;;;;;21.68;41.54;100884.72;5022194;28;20066;-75
2022/05/26 10:51:15;;;;;;;1.40;0.70;;;;;;;21.44;42.85;100871.50;5020924;28;20064;-75
2022/05/26 10:54:08;;;;;;;3.85;0.68;;;;;;;21.24;42.94;100868.81;5024193;28;20061;-75
2022/05/26 10:56:56;;;;;;;1.73;0.70;;;;;;;21.22;42.52;100857.25;5026728;28;20045;-75
2022/05/26 10:59:28;;;;;;;2.20;0.77;;;;;;;21.34;43.38;100870.13;5026296;28;20041;-75
2022/05/26 11:02:02;;;;;;;3.90;0.88;;;;;;;21.50;43.43;100869.47;5027382;28;20053;-75
2022/05/26 11:04:44;;;;;;;4.28;0.85;;;;;;;21.39;43.54;100872.66;5025983;28;20045;-75
2022/05/26 11:07:21;;;;;;;2.40;0.80;;;;;;;21.62;43.28;100863.53;5024716;28;20052;-76
2022/05/26 11:09:53;;;;;;;2.15;0.70;;;;;;;21.67;42.95;100874.94;5021871;28;20068;-76
2022/05/26 11:12:29;;;;;;;2.42;0.80;;;;;;;21.18;43.16;100879.84;5025077;28;20048;-76
2022/05/26 11:18:08;;;;;;;1.17;0.60;;;;;;;20.80;44.80;100890.41;5023628;28;20037;-76
2022/05/26 11:20:49;;;;;;;3.28;0.88;;;;;;;20.74;44.75;100886.19;5021617;28;20042;-75
2022/05/26 11:23:17;;;;;;;3.15;0.93;;;;;;;21.16;43.90;100887.06;5023640;28;20084;-75
2022/05/26 11:25:56;;;;;;;4.13;0.90;;;;;;;21.73;43.58;100882.69;5026075;28;20447;-76
2022/05/26 11:28:40;;;;;;;1.60;0.70;;;;;;;22.12;42.28;100872.81;5026154;28;20034;-76
2022/05/26 11:36:52;;;;;;;2.45;1.02;;;;;;;23.20;39.14;100879.91;5023487;28;20042;-75
2022/05/26 11:39:29;;;;;;;4.15;0.90;;;;;;;23.01;39.17;100882.69;5023339;28;20038;-75
2022/05/26 11:42:01;;;;;;;2.50;0.77;;;;;;;22.61;40.16;100854.25;5024839;28;20062;-75
2022/05/26 11:44:33;;;;;;;2.40;0.63;;;;;;;22.81;38.75;100859.47;5025628;28;20026;-75
2022/05/26 11:47:31;;;;;;;3.17;0.90;;;;;;;22.87;38.99;100860.97;5021632;28;20034;-75
2022/05/26 11:49:57;;;;;;;2.42;0.93;;;;;;;22.80;39.03;100846.97;5024413;28;20068;-75
2022/05/26 11:52:25;;;;;;;2.97;1.17;;;;;;;23.10;38.52;100863.34;5023406;28;20515;-75
2022/05/26 11:54:53;;;;;;;3.90;1.20;;;;;;;23.29;38.29;100851.59;5028987;28;20133;-75
2022/05/26 11:57:49;;;;;;;5.65;1.15;;;;;;;23.34;38.18;100845.03;5025723;28;20045;-75
2022/05/26 12:00:14;;;;;;;2.53;1.00;;;;;;;23.62;36.60;100870.44;5023120;28;20033;-75
2022/05/26 12:02:40;;;;;;;2.22;0.93;;;;;;;23.66;36.12;100837.00;5020485;28;20045;-75
2022/05/26 12:05:39;;;;;;;3.38;1.30;;;;;;;24.09;35.73;100839.97;5024046;28;20038;-74
2022/05/26 12:08:23;;;;;;;5.10;1.13;;;;;;;24.19;33.26;100861.88;5022547;28;20052;-75
2022/05/26 12:10:55;;;;;;;2.30;1.10;;;;;;;24.11;33.15;100864.16;5022754;28;20037;-75
2022/05/26 12:13:24;;;;;;;2.42;1.10;;;;;;;23.97;34.31;100838.88;5022204;28;20045;-75